sensor_id;sensor_type;location;lat;lon;timestamp;P1;durP1;ratioP1;P2;durP2;ratioP2
3849;SDS011;1940;51.052;13.678;2023-04-24T00:02:02;8.60;;;5.90;;
3849;SDS011;1940;51.052;13.678;2023-04-24T00:04:28;10.30;;;6.80;;
3849;SDS011;1940;51.052;13.678;2023-04-24T00:06:54;15.53;;;6.67;;
3849;SDS011;1940;51.052;13.678;2023-04-24T00:09:22;9.37;;;6.20;;
3849;SDS011;1940;51.052;13.678;2023-04-24T00:11:48;10.10;;;6.83;;
3849;SDS011;1940;51.052;13.678;2023-04-24T00:14:13;9.10;;;6.20;;
3849;SDS011;1940;51.052;13.678;2023-04-24T00:16:39;8.27;;;5.30;;
3849;SDS011;1940;51.052;13.678;2023-04-24T00:19:04;8.47;;;5.70;;
3849;SDS011;1940;51.052;13.678;2023-04-24T00:21:34;9.30;;;6.03;;
3849;SDS011;1940;51.052;13.678;2023-04-24T00:24:22;8.80;;;5.30;;
3849;SDS011;1940;51.052;13.678;2023-04-24T00:26:48;8.70;;;5.50;;
3849;SDS011;1940;51.052;13.678;2023-04-24T00:29:13;8.13;;;5.57;;
3849;SDS011;1940;51.052;13.678;2023-04-24T00:31:39;8.70;;;5.47;;
3849;SDS011;1940;51.052;13.678;2023-04-24T00:34:04;8.67;;;5.10;;
3849;SDS011;1940;51.052;13.678;2023-04-24T00:36:30;8.70;;;4.90;;
3849;SDS011;1940;51.052;13.678;2023-04-24T00:38:56;9.70;;;4.70;;
3849;SDS011;1940;51.052;13.678;2023-04-24T00:41:22;8.23;;;5.20;;
3849;SDS011;1940;51.052;13.678;2023-04-24T00:43:49;7.80;;;5.03;;
3849;SDS011;1940;51.052;13.678;2023-04-24T00:46:16;8.17;;;5.17;;
3849;SDS011;1940;51.052;13.678;2023-04-24T00:48:42;6.67;;;5.23;;
3849;SDS011;1940;51.052;13.678;2023-04-24T00:51:08;7.10;;;4.73;;
3849;SDS011;1940;51.052;13.678;2023-04-24T00:53:34;7.90;;;4.90;;
3849;SDS011;1940;51.052;13.678;2023-04-24T00:55:59;9.60;;;5.17;;
3849;SDS011;1940;51.052;13.678;2023-04-24T00:58:26;8.17;;;4.97;;
3849;SDS011;1940;51.052;13.678;2023-04-24T01:00:52;8.70;;;5.90;;
3849;SDS011;1940;51.052;13.678;2023-04-24T01:03:22;9.07;;;5.30;;
3849;SDS011;1940;51.052;13.678;2023-04-24T01:05:51;7.20;;;5.10;;
3849;SDS011;1940;51.052;13.678;2023-04-24T01:08:17;8.03;;;5.20;;
3849;SDS011;1940;51.052;13.678;2023-04-24T01:10:44;8.37;;;4.77;;
3849;SDS011;1940;51.052;13.678;2023-04-24T01:13:11;9.83;;;5.43;;
3849;SDS011;1940;51.052;13.678;2023-04-24T01:15:36;7.40;;;4.87;;
3849;SDS011;1940;51.052;13.678;2023-04-24T01:18:02;6.77;;;5.13;;
3849;SDS011;1940;51.052;13.678;2023-04-24T01:20:28;8.50;;;5.50;;
3849;SDS011;1940;51.052;13.678;2023-04-24T01:22:55;9.93;;;5.50;;
3849;SDS011;1940;51.052;13.678;2023-04-24T01:25:21;8.30;;;5.23;;
3849;SDS011;1940;51.052;13.678;2023-04-24T01:27:47;7.70;;;5.43;;
3849;SDS011;1940;51.052;13.678;2023-04-24T01:30:12;10.83;;;5.50;;
3849;SDS011;1940;51.052;13.678;2023-04-24T01:32:38;9.10;;;5.37;;
3849;SDS011;1940;51.052;13.678;2023-04-24T01:35:05;14.00;;;6.17;;
3849;SDS011;1940;51.052;13.678;2023-04-24T01:37:31;8.90;;;5.77;;
3849;SDS011;1940;51.052;13.678;2023-04-24T01:39:58;9.43;;;5.60;;
3849;SDS011;1940;51.052;13.678;2023-04-24T01:42:23;7.07;;;5.13;;
3849;SDS011;1940;51.052;13.678;2023-04-24T01:44:49;8.57;;;6.03;;
3849;SDS011;1940;51.052;13.678;2023-04-24T01:47:16;11.20;;;6.00;;
3849;SDS011;1940;51.052;13.678;2023-04-24T01:49:41;13.23;;;6.00;;
3849;SDS011;1940;51.052;13.678;2023-04-24T01:52:07;9.60;;;6.10;;
3849;SDS011;1940;51.052;13.678;2023-04-24T01:54:32;9.77;;;5.80;;
3849;SDS011;1940;51.052;13.678;2023-04-24T01:56:58;10.43;;;5.70;;
3849;SDS011;1940;51.052;13.678;2023-04-24T01:59:25;9.50;;;5.40;;
3849;SDS011;1940;51.052;13.678;2023-04-24T02:01:52;9.17;;;5.93;;
3849;SDS011;1940;51.052;13.678;2023-04-24T02:04:18;9.17;;;5.77;;
3849;SDS011;1940;51.052;13.678;2023-04-24T02:06:43;8.03;;;5.50;;
3849;SDS011;1940;51.052;13.678;2023-04-24T02:09:09;12.23;;;6.40;;
3849;SDS011;1940;51.052;13.678;2023-04-24T02:11:35;12.20;;;5.80;;
3849;SDS011;1940;51.052;13.678;2023-04-24T02:14:01;10.30;;;6.47;;
3849;SDS011;1940;51.052;13.678;2023-04-24T02:16:27;7.90;;;5.57;;
3849;SDS011;1940;51.052;13.678;2023-04-24T02:18:57;7.70;;;5.30;;
3849;SDS011;1940;51.052;13.678;2023-04-24T02:21:23;9.07;;;5.60;;
3849;SDS011;1940;51.052;13.678;2023-04-24T02:23:48;9.80;;;6.10;;
3849;SDS011;1940;51.052;13.678;2023-04-24T02:26:14;8.80;;;5.60;;
3849;SDS011;1940;51.052;13.678;2023-04-24T02:28:40;9.90;;;5.73;;
3849;SDS011;1940;51.052;13.678;2023-04-24T02:31:05;8.33;;;5.70;;
3849;SDS011;1940;51.052;13.678;2023-04-24T02:33:31;7.50;;;5.07;;
3849;SDS011;1940;51.052;13.678;2023-04-24T02:35:56;9.43;;;6.33;;
3849;SDS011;1940;51.052;13.678;2023-04-24T02:38:22;9.97;;;6.03;;
3849;SDS011;1940;51.052;13.678;2023-04-24T02:40:47;12.63;;;5.90;;
3849;SDS011;1940;51.052;13.678;2023-04-24T02:43:13;8.20;;;5.70;;
3849;SDS011;1940;51.052;13.678;2023-04-24T02:45:38;10.03;;;5.67;;
3849;SDS011;1940;51.052;13.678;2023-04-24T02:48:04;6.80;;;5.10;;
3849;SDS011;1940;51.052;13.678;2023-04-24T02:50:29;8.40;;;5.80;;
3849;SDS011;1940;51.052;13.678;2023-04-24T02:52:55;11.67;;;6.17;;
3849;SDS011;1940;51.052;13.678;2023-04-24T02:55:20;9.57;;;5.97;;
3849;SDS011;1940;51.052;13.678;2023-04-24T02:57:46;9.47;;;5.50;;
3849;SDS011;1940;51.052;13.678;2023-04-24T03:00:11;7.50;;;5.20;;
3849;SDS011;1940;51.052;13.678;2023-04-24T03:02:38;8.30;;;5.33;;
3849;SDS011;1940;51.052;13.678;2023-04-24T03:05:03;8.43;;;6.17;;
3849;SDS011;1940;51.052;13.678;2023-04-24T03:07:29;8.47;;;6.17;;
3849;SDS011;1940;51.052;13.678;2023-04-24T03:09:55;8.70;;;6.10;;
3849;SDS011;1940;51.052;13.678;2023-04-24T03:12:22;8.33;;;6.00;;
3849;SDS011;1940;51.052;13.678;2023-04-24T03:14:48;11.90;;;5.90;;
3849;SDS011;1940;51.052;13.678;2023-04-24T03:17:14;9.37;;;5.60;;
3849;SDS011;1940;51.052;13.678;2023-04-24T03:19:40;8.30;;;5.70;;
3849;SDS011;1940;51.052;13.678;2023-04-24T03:22:05;8.17;;;5.63;;
3849;SDS011;1940;51.052;13.678;2023-04-24T03:24:31;8.50;;;5.63;;
3849;SDS011;1940;51.052;13.678;2023-04-24T03:26:56;8.00;;;5.50;;
3849;SDS011;1940;51.052;13.678;2023-04-24T03:29:22;9.10;;;5.40;;
3849;SDS011;1940;51.052;13.678;2023-04-24T03:31:48;9.10;;;5.63;;
3849;SDS011;1940;51.052;13.678;2023-04-24T03:34:13;9.90;;;6.27;;
3849;SDS011;1940;51.052;13.678;2023-04-24T03:36:39;9.37;;;5.57;;
3849;SDS011;1940;51.052;13.678;2023-04-24T03:39:04;8.13;;;5.33;;
3849;SDS011;1940;51.052;13.678;2023-04-24T03:41:30;8.00;;;4.90;;
3849;SDS011;1940;51.052;13.678;2023-04-24T03:43:55;7.03;;;3.57;;
3849;SDS011;1940;51.052;13.678;2023-04-24T03:46:21;2.97;;;2.30;;
3849;SDS011;1940;51.052;13.678;2023-04-24T03:48:46;6.70;;;3.30;;
3849;SDS011;1940;51.052;13.678;2023-04-24T03:51:12;4.47;;;2.50;;
3849;SDS011;1940;51.052;13.678;2023-04-24T03:53:37;3.20;;;2.50;;
3849;SDS011;1940;51.052;13.678;2023-04-24T03:56:03;3.07;;;2.10;;
3849;SDS011;1940;51.052;13.678;2023-04-24T03:58:29;4.40;;;2.30;;
3849;SDS011;1940;51.052;13.678;2023-04-24T04:00:54;4.97;;;1.80;;
3849;SDS011;1940;51.052;13.678;2023-04-24T04:03:21;1.70;;;1.60;;
3849;SDS011;1940;51.052;13.678;2023-04-24T04:05:47;2.10;;;1.33;;
3849;SDS011;1940;51.052;13.678;2023-04-24T04:08:12;2.47;;;1.37;;
3849;SDS011;1940;51.052;13.678;2023-04-24T04:10:38;1.83;;;1.50;;
3849;SDS011;1940;51.052;13.678;2023-04-24T04:13:04;3.30;;;1.40;;
3849;SDS011;1940;51.052;13.678;2023-04-24T04:15:31;2.77;;;1.30;;
3849;SDS011;1940;51.052;13.678;2023-04-24T04:17:56;3.00;;;1.60;;
3849;SDS011;1940;51.052;13.678;2023-04-24T04:20:22;1.50;;;1.37;;
3849;SDS011;1940;51.052;13.678;2023-04-24T04:22:47;1.40;;;1.13;;
3849;SDS011;1940;51.052;13.678;2023-04-24T04:25:13;2.53;;;1.60;;
3849;SDS011;1940;51.052;13.678;2023-04-24T04:27:38;1.63;;;1.53;;
3849;SDS011;1940;51.052;13.678;2023-04-24T04:30:06;3.10;;;1.13;;
3849;SDS011;1940;51.052;13.678;2023-04-24T04:32:33;2.03;;;1.40;;
3849;SDS011;1940;51.052;13.678;2023-04-24T04:35:00;1.93;;;1.50;;
3849;SDS011;1940;51.052;13.678;2023-04-24T04:37:32;2.80;;;1.47;;
3849;SDS011;1940;51.052;13.678;2023-04-24T04:39:58;2.27;;;1.53;;
3849;SDS011;1940;51.052;13.678;2023-04-24T04:42:24;3.50;;;2.50;;
3849;SDS011;1940;51.052;13.678;2023-04-24T04:44:51;2.37;;;1.83;;
3849;SDS011;1940;51.052;13.678;2023-04-24T04:47:17;3.77;;;2.20;;
3849;SDS011;1940;51.052;13.678;2023-04-24T04:49:43;2.93;;;1.73;;
3849;SDS011;1940;51.052;13.678;2023-04-24T04:52:09;4.27;;;2.23;;
3849;SDS011;1940;51.052;13.678;2023-04-24T04:54:34;3.67;;;1.83;;
3849;SDS011;1940;51.052;13.678;2023-04-24T04:57:00;2.03;;;1.47;;
3849;SDS011;1940;51.052;13.678;2023-04-24T04:59:26;2.10;;;1.63;;
3849;SDS011;1940;51.052;13.678;2023-04-24T05:01:52;3.37;;;1.70;;
3849;SDS011;1940;51.052;13.678;2023-04-24T05:04:18;4.90;;;1.47;;
3849;SDS011;1940;51.052;13.678;2023-04-24T05:06:43;3.37;;;1.97;;
3849;SDS011;1940;51.052;13.678;2023-04-24T05:09:09;2.30;;;1.90;;
3849;SDS011;1940;51.052;13.678;2023-04-24T05:11:34;2.90;;;1.70;;
3849;SDS011;1940;51.052;13.678;2023-04-24T05:14:00;4.30;;;2.30;;
3849;SDS011;1940;51.052;13.678;2023-04-24T05:16:25;2.30;;;1.50;;
3849;SDS011;1940;51.052;13.678;2023-04-24T05:18:51;2.60;;;1.60;;
3849;SDS011;1940;51.052;13.678;2023-04-24T05:21:16;2.07;;;1.47;;
3849;SDS011;1940;51.052;13.678;2023-04-24T05:23:42;8.20;;;1.60;;
3849;SDS011;1940;51.052;13.678;2023-04-24T05:26:08;3.17;;;1.30;;
3849;SDS011;1940;51.052;13.678;2023-04-24T05:28:33;1.70;;;1.40;;
3849;SDS011;1940;51.052;13.678;2023-04-24T05:31:01;1.90;;;1.30;;
3849;SDS011;1940;51.052;13.678;2023-04-24T05:33:27;2.00;;;1.50;;
3849;SDS011;1940;51.052;13.678;2023-04-24T05:35:52;3.23;;;1.67;;
3849;SDS011;1940;51.052;13.678;2023-04-24T05:38:18;2.70;;;1.43;;
3849;SDS011;1940;51.052;13.678;2023-04-24T05:40:44;1.30;;;1.20;;
3849;SDS011;1940;51.052;13.678;2023-04-24T05:43:10;1.53;;;1.30;;
3849;SDS011;1940;51.052;13.678;2023-04-24T05:45:36;1.60;;;1.40;;
3849;SDS011;1940;51.052;13.678;2023-04-24T05:48:02;1.30;;;1.00;;
3849;SDS011;1940;51.052;13.678;2023-04-24T05:50:28;5.93;;;1.40;;
3849;SDS011;1940;51.052;13.678;2023-04-24T05:52:53;2.80;;;1.37;;
3849;SDS011;1940;51.052;13.678;2023-04-24T05:55:19;3.10;;;1.50;;
3849;SDS011;1940;51.052;13.678;2023-04-24T05:57:45;3.20;;;1.30;;
3849;SDS011;1940;51.052;13.678;2023-04-24T06:00:11;3.60;;;1.27;;
3849;SDS011;1940;51.052;13.678;2023-04-24T06:02:37;1.30;;;1.20;;
3849;SDS011;1940;51.052;13.678;2023-04-24T06:05:03;1.50;;;1.30;;
3849;SDS011;1940;51.052;13.678;2023-04-24T06:07:29;2.30;;;1.30;;
3849;SDS011;1940;51.052;13.678;2023-04-24T06:09:57;4.97;;;1.43;;
3849;SDS011;1940;51.052;13.678;2023-04-24T06:12:23;2.70;;;1.03;;
3849;SDS011;1940;51.052;13.678;2023-04-24T06:14:48;1.93;;;1.20;;
3849;SDS011;1940;51.052;13.678;2023-04-24T06:17:14;1.87;;;1.23;;
3849;SDS011;1940;51.052;13.678;2023-04-24T06:19:40;2.03;;;1.30;;
3849;SDS011;1940;51.052;13.678;2023-04-24T06:22:05;2.47;;;1.20;;
3849;SDS011;1940;51.052;13.678;2023-04-24T06:24:31;3.60;;;1.33;;
3849;SDS011;1940;51.052;13.678;2023-04-24T06:26:57;2.10;;;1.17;;
3849;SDS011;1940;51.052;13.678;2023-04-24T06:29:23;2.37;;;1.30;;
3849;SDS011;1940;51.052;13.678;2023-04-24T06:31:49;1.50;;;1.10;;
3849;SDS011;1940;51.052;13.678;2023-04-24T06:34:15;1.67;;;1.30;;
3849;SDS011;1940;51.052;13.678;2023-04-24T06:36:40;2.30;;;1.30;;
3849;SDS011;1940;51.052;13.678;2023-04-24T06:39:06;4.03;;;1.10;;
3849;SDS011;1940;51.052;13.678;2023-04-24T06:41:31;2.20;;;1.20;;
3849;SDS011;1940;51.052;13.678;2023-04-24T06:43:57;1.57;;;1.10;;
3849;SDS011;1940;51.052;13.678;2023-04-24T06:46:22;1.80;;;1.37;;
3849;SDS011;1940;51.052;13.678;2023-04-24T06:48:50;1.13;;;0.93;;
3849;SDS011;1940;51.052;13.678;2023-04-24T06:51:17;2.23;;;1.30;;
3849;SDS011;1940;51.052;13.678;2023-04-24T06:53:43;2.30;;;1.10;;
3849;SDS011;1940;51.052;13.678;2023-04-24T06:56:08;1.17;;;0.90;;
3849;SDS011;1940;51.052;13.678;2023-04-24T06:58:34;1.30;;;1.20;;
3849;SDS011;1940;51.052;13.678;2023-04-24T07:00:59;7.03;;;1.30;;
3849;SDS011;1940;51.052;13.678;2023-04-24T07:03:25;1.77;;;1.23;;
3849;SDS011;1940;51.052;13.678;2023-04-24T07:05:50;4.20;;;1.20;;
3849;SDS011;1940;51.052;13.678;2023-04-24T07:08:16;2.20;;;1.00;;
3849;SDS011;1940;51.052;13.678;2023-04-24T07:10:48;2.27;;;1.03;;
3849;SDS011;1940;51.052;13.678;2023-04-24T07:13:14;1.77;;;1.00;;
3849;SDS011;1940;51.052;13.678;2023-04-24T07:15:39;2.20;;;1.30;;
3849;SDS011;1940;51.052;13.678;2023-04-24T07:18:06;2.07;;;1.10;;
3849;SDS011;1940;51.052;13.678;2023-04-24T07:20:31;1.93;;;1.00;;
3849;SDS011;1940;51.052;13.678;2023-04-24T07:22:58;6.03;;;1.00;;
3849;SDS011;1940;51.052;13.678;2023-04-24T07:25:23;3.53;;;1.00;;
3849;SDS011;1940;51.052;13.678;2023-04-24T07:27:49;2.40;;;0.97;;
3849;SDS011;1940;51.052;13.678;2023-04-24T07:30:15;1.10;;;0.80;;
3849;SDS011;1940;51.052;13.678;2023-04-24T07:32:41;3.67;;;1.20;;
3849;SDS011;1940;51.052;13.678;2023-04-24T07:35:07;1.50;;;0.97;;
3849;SDS011;1940;51.052;13.678;2023-04-24T07:37:34;1.87;;;1.00;;
3849;SDS011;1940;51.052;13.678;2023-04-24T07:40:00;1.17;;;0.90;;
3849;SDS011;1940;51.052;13.678;2023-04-24T07:42:25;1.17;;;1.00;;
3849;SDS011;1940;51.052;13.678;2023-04-24T07:44:51;1.03;;;0.90;;
3849;SDS011;1940;51.052;13.678;2023-04-24T07:47:17;1.47;;;1.03;;
3849;SDS011;1940;51.052;13.678;2023-04-24T07:49:42;2.03;;;0.80;;
3849;SDS011;1940;51.052;13.678;2023-04-24T07:52:08;2.20;;;1.20;;
3849;SDS011;1940;51.052;13.678;2023-04-24T07:54:33;3.37;;;1.13;;
3849;SDS011;1940;51.052;13.678;2023-04-24T07:56:59;3.37;;;1.20;;
3849;SDS011;1940;51.052;13.678;2023-04-24T07:59:25;2.70;;;0.90;;
3849;SDS011;1940;51.052;13.678;2023-04-24T08:01:51;1.30;;;1.00;;
3849;SDS011;1940;51.052;13.678;2023-04-24T08:04:16;2.13;;;0.83;;
3849;SDS011;1940;51.052;13.678;2023-04-24T08:06:43;1.77;;;1.00;;
3849;SDS011;1940;51.052;13.678;2023-04-24T08:09:08;2.40;;;1.10;;
3849;SDS011;1940;51.052;13.678;2023-04-24T08:11:34;2.80;;;0.80;;
3849;SDS011;1940;51.052;13.678;2023-04-24T08:14:00;3.73;;;0.90;;
3849;SDS011;1940;51.052;13.678;2023-04-24T08:16:25;3.90;;;1.07;;
3849;SDS011;1940;51.052;13.678;2023-04-24T08:18:51;1.27;;;0.80;;
3849;SDS011;1940;51.052;13.678;2023-04-24T08:21:18;1.20;;;0.90;;
3849;SDS011;1940;51.052;13.678;2023-04-24T08:23:44;1.80;;;1.00;;
3849;SDS011;1940;51.052;13.678;2023-04-24T08:26:10;1.90;;;1.20;;
3849;SDS011;1940;51.052;13.678;2023-04-24T08:28:36;3.23;;;1.10;;
3849;SDS011;1940;51.052;13.678;2023-04-24T08:31:02;1.30;;;0.83;;
3849;SDS011;1940;51.052;13.678;2023-04-24T08:33:28;3.67;;;0.80;;
3849;SDS011;1940;51.052;13.678;2023-04-24T08:35:59;2.73;;;0.90;;
3849;SDS011;1940;51.052;13.678;2023-04-24T08:38:28;1.30;;;1.00;;
3849;SDS011;1940;51.052;13.678;2023-04-24T08:40:54;2.10;;;1.00;;
3849;SDS011;1940;51.052;13.678;2023-04-24T08:43:24;1.70;;;1.20;;
3849;SDS011;1940;51.052;13.678;2023-04-24T08:45:51;3.27;;;1.10;;
3849;SDS011;1940;51.052;13.678;2023-04-24T08:48:17;3.20;;;1.10;;
3849;SDS011;1940;51.052;13.678;2023-04-24T08:50:43;1.77;;;1.10;;
3849;SDS011;1940;51.052;13.678;2023-04-24T08:53:09;2.03;;;0.93;;
3849;SDS011;1940;51.052;13.678;2023-04-24T08:55:35;2.40;;;1.00;;
3849;SDS011;1940;51.052;13.678;2023-04-24T08:58:02;1.30;;;1.00;;
3849;SDS011;1940;51.052;13.678;2023-04-24T09:00:28;1.57;;;1.00;;
3849;SDS011;1940;51.052;13.678;2023-04-24T09:02:55;0.83;;;0.80;;
3849;SDS011;1940;51.052;13.678;2023-04-24T09:05:21;1.30;;;1.00;;
3849;SDS011;1940;51.052;13.678;2023-04-24T09:07:49;2.60;;;0.90;;
3849;SDS011;1940;51.052;13.678;2023-04-24T09:10:20;2.07;;;0.80;;
3849;SDS011;1940;51.052;13.678;2023-04-24T09:12:47;1.57;;;1.00;;
3849;SDS011;1940;51.052;13.678;2023-04-24T09:15:12;3.13;;;0.90;;
3849;SDS011;1940;51.052;13.678;2023-04-24T09:17:38;2.67;;;1.03;;
3849;SDS011;1940;51.052;13.678;2023-04-24T09:20:04;1.30;;;0.90;;
3849;SDS011;1940;51.052;13.678;2023-04-24T09:22:30;1.50;;;0.90;;
3849;SDS011;1940;51.052;13.678;2023-04-24T09:24:59;2.87;;;1.50;;
3849;SDS011;1940;51.052;13.678;2023-04-24T09:27:28;1.10;;;0.80;;
3849;SDS011;1940;51.052;13.678;2023-04-24T09:29:54;2.03;;;1.43;;
3849;SDS011;1940;51.052;13.678;2023-04-24T09:32:21;1.13;;;1.00;;
3849;SDS011;1940;51.052;13.678;2023-04-24T09:34:47;1.03;;;0.93;;
3849;SDS011;1940;51.052;13.678;2023-04-24T09:37:34;3.10;;;0.90;;
3849;SDS011;1940;51.052;13.678;2023-04-24T09:40:19;4.10;;;1.07;;
3849;SDS011;1940;51.052;13.678;2023-04-24T09:42:54;1.67;;;1.10;;
3849;SDS011;1940;51.052;13.678;2023-04-24T09:45:21;1.30;;;0.97;;
3849;SDS011;1940;51.052;13.678;2023-04-24T09:47:52;1.33;;;0.80;;
3849;SDS011;1940;51.052;13.678;2023-04-24T09:50:18;1.30;;;0.80;;
3849;SDS011;1940;51.052;13.678;2023-04-24T09:52:55;1.00;;;0.90;;
3849;SDS011;1940;51.052;13.678;2023-04-24T09:55:22;5.90;;;1.17;;
3849;SDS011;1940;51.052;13.678;2023-04-24T09:57:58;1.23;;;1.07;;
3849;SDS011;1940;51.052;13.678;2023-04-24T10:00:30;1.60;;;0.90;;
3849;SDS011;1940;51.052;13.678;2023-04-24T10:02:58;0.90;;;0.77;;
3849;SDS011;1940;51.052;13.678;2023-04-24T10:05:26;1.70;;;1.20;;
3849;SDS011;1940;51.052;13.678;2023-04-24T10:08:02;1.73;;;0.90;;
3849;SDS011;1940;51.052;13.678;2023-04-24T10:10:33;1.20;;;0.83;;
3849;SDS011;1940;51.052;13.678;2023-04-24T10:13:01;1.97;;;1.07;;
3849;SDS011;1940;51.052;13.678;2023-04-24T10:15:28;1.30;;;0.97;;
3849;SDS011;1940;51.052;13.678;2023-04-24T10:17:54;1.37;;;0.93;;
3849;SDS011;1940;51.052;13.678;2023-04-24T10:20:24;2.10;;;0.90;;
3849;SDS011;1940;51.052;13.678;2023-04-24T10:22:52;2.20;;;1.03;;
3849;SDS011;1940;51.052;13.678;2023-04-24T10:25:19;1.10;;;0.77;;
3849;SDS011;1940;51.052;13.678;2023-04-24T10:27:46;4.27;;;1.00;;
3849;SDS011;1940;51.052;13.678;2023-04-24T10:30:13;2.50;;;1.13;;
3849;SDS011;1940;51.052;13.678;2023-04-24T10:32:39;2.63;;;0.90;;
3849;SDS011;1940;51.052;13.678;2023-04-24T10:35:08;1.53;;;0.90;;
3849;SDS011;1940;51.052;13.678;2023-04-24T10:37:35;1.17;;;0.90;;
3849;SDS011;1940;51.052;13.678;2023-04-24T10:40:06;1.00;;;0.90;;
3849;SDS011;1940;51.052;13.678;2023-04-24T10:42:33;1.57;;;1.17;;
3849;SDS011;1940;51.052;13.678;2023-04-24T10:44:59;0.90;;;0.90;;
3849;SDS011;1940;51.052;13.678;2023-04-24T10:47:29;2.20;;;1.03;;
3849;SDS011;1940;51.052;13.678;2023-04-24T10:50:07;1.20;;;0.80;;
3849;SDS011;1940;51.052;13.678;2023-04-24T10:52:44;1.37;;;1.00;;
3849;SDS011;1940;51.052;13.678;2023-04-24T10:55:10;1.60;;;1.03;;
3849;SDS011;1940;51.052;13.678;2023-04-24T10:57:38;1.27;;;1.00;;
3849;SDS011;1940;51.052;13.678;2023-04-24T11:02:40;1.03;;;0.93;;
3849;SDS011;1940;51.052;13.678;2023-04-24T11:05:13;2.00;;;1.10;;
3849;SDS011;1940;51.052;13.678;2023-04-24T11:08:09;1.10;;;1.00;;
3849;SDS011;1940;51.052;13.678;2023-04-24T11:10:39;2.97;;;1.20;;
3849;SDS011;1940;51.052;13.678;2023-04-24T11:13:09;0.97;;;0.87;;
3849;SDS011;1940;51.052;13.678;2023-04-24T11:15:35;1.60;;;1.00;;
3849;SDS011;1940;51.052;13.678;2023-04-24T11:18:00;2.27;;;1.10;;
3849;SDS011;1940;51.052;13.678;2023-04-24T11:20:25;3.00;;;0.90;;
3849;SDS011;1940;51.052;13.678;2023-04-24T11:22:52;1.00;;;0.90;;
3849;SDS011;1940;51.052;13.678;2023-04-24T11:25:19;2.60;;;1.00;;
3849;SDS011;1940;51.052;13.678;2023-04-24T11:27:47;0.90;;;0.80;;
3849;SDS011;1940;51.052;13.678;2023-04-24T11:30:17;1.67;;;0.90;;
3849;SDS011;1940;51.052;13.678;2023-04-24T11:32:43;1.10;;;0.97;;
3849;SDS011;1940;51.052;13.678;2023-04-24T11:35:20;1.13;;;0.97;;
3849;SDS011;1940;51.052;13.678;2023-04-24T11:37:50;2.67;;;1.10;;
3849;SDS011;1940;51.052;13.678;2023-04-24T11:40:18;2.90;;;1.10;;
3849;SDS011;1940;51.052;13.678;2023-04-24T11:42:49;0.90;;;0.80;;
3849;SDS011;1940;51.052;13.678;2023-04-24T11:45:23;0.73;;;0.73;;
3849;SDS011;1940;51.052;13.678;2023-04-24T11:47:52;1.20;;;0.90;;
3849;SDS011;1940;51.052;13.678;2023-04-24T11:50:19;1.87;;;0.90;;
3849;SDS011;1940;51.052;13.678;2023-04-24T11:52:47;1.00;;;0.90;;
3849;SDS011;1940;51.052;13.678;2023-04-24T11:57:39;1.00;;;0.90;;
3849;SDS011;1940;51.052;13.678;2023-04-24T12:00:09;1.03;;;0.90;;
3849;SDS011;1940;51.052;13.678;2023-04-24T12:02:39;1.07;;;0.97;;
3849;SDS011;1940;51.052;13.678;2023-04-24T12:05:05;3.67;;;1.03;;
3849;SDS011;1940;51.052;13.678;2023-04-24T12:07:31;1.20;;;1.10;;
3849;SDS011;1940;51.052;13.678;2023-04-24T12:10:09;1.23;;;1.10;;
3849;SDS011;1940;51.052;13.678;2023-04-24T12:12:35;3.90;;;1.00;;
3849;SDS011;1940;51.052;13.678;2023-04-24T12:15:01;1.10;;;1.00;;
3849;SDS011;1940;51.052;13.678;2023-04-24T12:17:33;2.50;;;1.00;;
3849;SDS011;1940;51.052;13.678;2023-04-24T12:20:00;1.43;;;1.20;;
3849;SDS011;1940;51.052;13.678;2023-04-24T12:22:27;1.20;;;1.00;;
3849;SDS011;1940;51.052;13.678;2023-04-24T12:25:01;1.87;;;0.90;;
3849;SDS011;1940;51.052;13.678;2023-04-24T12:27:29;1.30;;;1.10;;
3849;SDS011;1940;51.052;13.678;2023-04-24T12:29:57;2.10;;;1.13;;
3849;SDS011;1940;51.052;13.678;2023-04-24T12:32:24;4.70;;;1.30;;
3849;SDS011;1940;51.052;13.678;2023-04-24T12:34:50;2.90;;;1.10;;
3849;SDS011;1940;51.052;13.678;2023-04-24T12:37:19;1.37;;;1.03;;
3849;SDS011;1940;51.052;13.678;2023-04-24T12:39:57;1.17;;;1.00;;
3849;SDS011;1940;51.052;13.678;2023-04-24T12:42:28;2.30;;;1.50;;
3849;SDS011;1940;51.052;13.678;2023-04-24T12:44:56;1.40;;;1.30;;
3849;SDS011;1940;51.052;13.678;2023-04-24T12:47:30;5.40;;;1.10;;
3849;SDS011;1940;51.052;13.678;2023-04-24T12:49:57;1.20;;;1.10;;
3849;SDS011;1940;51.052;13.678;2023-04-24T12:52:23;1.20;;;1.10;;
3849;SDS011;1940;51.052;13.678;2023-04-24T12:54:50;1.30;;;1.20;;
3849;SDS011;1940;51.052;13.678;2023-04-24T12:57:16;3.57;;;1.10;;
3849;SDS011;1940;51.052;13.678;2023-04-24T12:59:44;1.40;;;1.20;;
3849;SDS011;1940;51.052;13.678;2023-04-24T13:02:10;1.83;;;1.10;;
3849;SDS011;1940;51.052;13.678;2023-04-24T13:04:36;1.57;;;1.20;;
3849;SDS011;1940;51.052;13.678;2023-04-24T13:07:01;1.53;;;1.10;;
3849;SDS011;1940;51.052;13.678;2023-04-24T13:09:27;1.20;;;1.10;;
3849;SDS011;1940;51.052;13.678;2023-04-24T13:11:54;1.73;;;1.27;;
3849;SDS011;1940;51.052;13.678;2023-04-24T13:14:21;1.77;;;1.27;;
3849;SDS011;1940;51.052;13.678;2023-04-24T13:16:46;3.00;;;1.43;;
3849;SDS011;1940;51.052;13.678;2023-04-24T13:19:12;1.50;;;1.40;;
3849;SDS011;1940;51.052;13.678;2023-04-24T13:21:37;4.63;;;1.40;;
3849;SDS011;1940;51.052;13.678;2023-04-24T13:24:03;2.43;;;1.40;;
3849;SDS011;1940;51.052;13.678;2023-04-24T13:26:30;1.47;;;1.37;;
3849;SDS011;1940;51.052;13.678;2023-04-24T13:28:55;3.90;;;1.50;;
3849;SDS011;1940;51.052;13.678;2023-04-24T13:31:21;1.67;;;1.30;;
3849;SDS011;1940;51.052;13.678;2023-04-24T13:33:46;2.07;;;1.30;;
3849;SDS011;1940;51.052;13.678;2023-04-24T13:36:11;3.63;;;1.23;;
3849;SDS011;1940;51.052;13.678;2023-04-24T13:38:37;1.27;;;1.07;;
3849;SDS011;1940;51.052;13.678;2023-04-24T13:41:02;2.00;;;1.50;;
3849;SDS011;1940;51.052;13.678;2023-04-24T13:43:28;4.00;;;1.30;;
3849;SDS011;1940;51.052;13.678;2023-04-24T13:45:53;2.07;;;1.30;;
3849;SDS011;1940;51.052;13.678;2023-04-24T13:48:19;1.40;;;1.23;;
3849;SDS011;1940;51.052;13.678;2023-04-24T13:50:45;1.80;;;1.20;;
3849;SDS011;1940;51.052;13.678;2023-04-24T13:53:13;1.60;;;1.30;;
3849;SDS011;1940;51.052;13.678;2023-04-24T13:55:38;1.93;;;1.20;;
3849;SDS011;1940;51.052;13.678;2023-04-24T13:58:04;1.30;;;1.20;;
3849;SDS011;1940;51.052;13.678;2023-04-24T14:00:30;1.30;;;1.20;;
3849;SDS011;1940;51.052;13.678;2023-04-24T14:02:56;2.50;;;1.43;;
3849;SDS011;1940;51.052;13.678;2023-04-24T14:05:22;3.93;;;1.40;;
3849;SDS011;1940;51.052;13.678;2023-04-24T14:07:47;1.40;;;1.30;;
3849;SDS011;1940;51.052;13.678;2023-04-24T14:10:12;1.40;;;1.30;;
3849;SDS011;1940;51.052;13.678;2023-04-24T14:12:38;5.47;;;1.40;;
3849;SDS011;1940;51.052;13.678;2023-04-24T14:15:04;2.53;;;1.30;;
3849;SDS011;1940;51.052;13.678;2023-04-24T14:17:30;2.57;;;1.27;;
3849;SDS011;1940;51.052;13.678;2023-04-24T14:19:56;1.30;;;1.20;;
3849;SDS011;1940;51.052;13.678;2023-04-24T14:22:21;4.40;;;1.50;;
3849;SDS011;1940;51.052;13.678;2023-04-24T14:24:47;2.80;;;1.70;;
3849;SDS011;1940;51.052;13.678;2023-04-24T14:27:12;3.13;;;1.43;;
3849;SDS011;1940;51.052;13.678;2023-04-24T14:29:38;2.10;;;1.70;;
3849;SDS011;1940;51.052;13.678;2023-04-24T14:32:03;1.83;;;1.43;;
3849;SDS011;1940;51.052;13.678;2023-04-24T14:34:29;1.70;;;1.60;;
3849;SDS011;1940;51.052;13.678;2023-04-24T14:36:54;1.50;;;1.40;;
3849;SDS011;1940;51.052;13.678;2023-04-24T14:39:20;4.03;;;1.43;;
3849;SDS011;1940;51.052;13.678;2023-04-24T14:41:46;2.37;;;1.50;;
3849;SDS011;1940;51.052;13.678;2023-04-24T14:44:11;3.00;;;1.77;;
3849;SDS011;1940;51.052;13.678;2023-04-24T14:46:37;1.60;;;1.50;;
3849;SDS011;1940;51.052;13.678;2023-04-24T14:49:02;1.60;;;1.50;;
3849;SDS011;1940;51.052;13.678;2023-04-24T14:51:28;2.07;;;1.40;;
3849;SDS011;1940;51.052;13.678;2023-04-24T14:53:53;2.60;;;1.50;;
3849;SDS011;1940;51.052;13.678;2023-04-24T14:56:19;2.20;;;1.67;;
3849;SDS011;1940;51.052;13.678;2023-04-24T14:58:45;3.67;;;1.80;;
3849;SDS011;1940;51.052;13.678;2023-04-24T15:01:10;2.33;;;1.40;;
3849;SDS011;1940;51.052;13.678;2023-04-24T15:03:36;2.60;;;1.60;;